sensor_id;sensor_type;location;lat;lon;timestamp;pressure;altitude;pressure_sealevel;temperature;humidity
4745;BME280;2386;42.138;24.746;2022-07-23T00:00:39;99656.28;;;26.64;52.82
4745;BME280;2386;42.138;24.746;2022-07-23T00:03:05;99664.16;;;26.62;52.70
4745;BME280;2386;42.138;24.746;2022-07-23T00:05:31;99659.59;;;26.58;52.09
4745;BME280;2386;42.138;24.746;2022-07-23T00:07:56;99663.19;;;26.58;51.42
4745;BME280;2386;42.138;24.746;2022-07-23T00:10:22;99656.38;;;26.47;52.69
4745;BME280;2386;42.138;24.746;2022-07-23T00:12:47;99660.63;;;26.53;53.52
4745;BME280;2386;42.138;24.746;2022-07-23T00:15:12;99667.28;;;26.61;54.52
4745;BME280;2386;42.138;24.746;2022-07-23T00:17:38;99664.84;;;26.59;54.30
4745;BME280;2386;42.138;24.746;2022-07-23T00:20:04;99665.06;;;26.45;55.09
4745;BME280;2386;42.138;24.746;2022-07-23T00:22:29;99657.25;;;26.39;55.65
4745;BME280;2386;42.138;24.746;2022-07-23T00:24:56;99656.78;;;26.37;55.90
4745;BME280;2386;42.138;24.746;2022-07-23T00:27:21;99654.22;;;26.14;56.69
4745;BME280;2386;42.138;24.746;2022-07-23T00:29:47;99659.81;;;26.06;58.39
4745;BME280;2386;42.138;24.746;2022-07-23T00:32:12;99659.09;;;26.17;57.14
4745;BME280;2386;42.138;24.746;2022-07-23T00:34:37;99667.75;;;26.25;58.36
4745;BME280;2386;42.138;24.746;2022-07-23T00:37:03;99658.00;;;26.10;58.60
4745;BME280;2386;42.138;24.746;2022-07-23T00:39:28;99655.78;;;25.95;59.80
4745;BME280;2386;42.138;24.746;2022-07-23T00:41:54;99665.13;;;25.90;61.61
4745;BME280;2386;42.138;24.746;2022-07-23T00:44:20;99672.31;;;25.91;62.03
4745;BME280;2386;42.138;24.746;2022-07-23T00:46:48;99663.13;;;25.99;61.41
4745;BME280;2386;42.138;24.746;2022-07-23T00:49:14;99662.19;;;25.86;62.31
4745;BME280;2386;42.138;24.746;2022-07-23T00:51:39;99671.03;;;25.80;63.92
4745;BME280;2386;42.138;24.746;2022-07-23T00:54:05;99674.00;;;25.75;63.68
4745;BME280;2386;42.138;24.746;2022-07-23T00:56:30;99673.31;;;25.78;64.57
4745;BME280;2386;42.138;24.746;2022-07-23T00:58:56;99676.59;;;25.80;63.81
4745;BME280;2386;42.138;24.746;2022-07-23T01:01:22;99680.69;;;25.82;63.27
4745;BME280;2386;42.138;24.746;2022-07-23T01:03:47;99673.81;;;25.80;62.71
4745;BME280;2386;42.138;24.746;2022-07-23T01:06:13;99675.63;;;25.76;61.81
4745;BME280;2386;42.138;24.746;2022-07-23T01:08:39;99673.31;;;25.61;64.29
4745;BME280;2386;42.138;24.746;2022-07-23T01:11:05;99678.06;;;25.60;63.59
4745;BME280;2386;42.138;24.746;2022-07-23T01:13:30;99677.75;;;25.62;64.20
4745;BME280;2386;42.138;24.746;2022-07-23T01:15:56;99670.06;;;25.50;66.70
4745;BME280;2386;42.138;24.746;2022-07-23T01:18:21;99669.41;;;25.44;65.96
4745;BME280;2386;42.138;24.746;2022-07-23T01:20:46;99664.84;;;25.31;66.04
4745;BME280;2386;42.138;24.746;2022-07-23T01:23:14;99664.84;;;25.40;66.38
4745;BME280;2386;42.138;24.746;2022-07-23T01:25:53;99672.19;;;25.36;65.52
4745;BME280;2386;42.138;24.746;2022-07-23T01:28:19;99660.16;;;25.06;66.85
4745;BME280;2386;42.138;24.746;2022-07-23T01:30:45;99661.44;;;25.26;67.79
4745;BME280;2386;42.138;24.746;2022-07-23T01:33:10;99664.69;;;25.28;65.79
4745;BME280;2386;42.138;24.746;2022-07-23T01:35:36;99669.75;;;25.34;65.62
4745;BME280;2386;42.138;24.746;2022-07-23T01:38:01;99666.00;;;25.30;64.37
4745;BME280;2386;42.138;24.746;2022-07-23T01:40:27;99671.88;;;25.37;63.45
4745;BME280;2386;42.138;24.746;2022-07-23T01:42:52;99669.44;;;25.27;63.51
4745;BME280;2386;42.138;24.746;2022-07-23T01:45:18;99670.91;;;25.33;62.02
4745;BME280;2386;42.138;24.746;2022-07-23T01:47:43;99665.06;;;25.17;62.92
4745;BME280;2386;42.138;24.746;2022-07-23T01:50:09;99673.72;;;25.25;64.13
4745;BME280;2386;42.138;24.746;2022-07-23T01:52:34;99667.34;;;25.24;63.33
4745;BME280;2386;42.138;24.746;2022-07-23T01:55:00;99654.09;;;25.21;61.42
4745;BME280;2386;42.138;24.746;2022-07-23T01:57:25;99659.81;;;25.07;61.60
4745;BME280;2386;42.138;24.746;2022-07-23T01:59:51;99668.16;;;25.16;62.27
4745;BME280;2386;42.138;24.746;2022-07-23T02:02:16;99659.97;;;25.11;62.02
4745;BME280;2386;42.138;24.746;2022-07-23T02:04:42;99672.41;;;25.13;61.71
4745;BME280;2386;42.138;24.746;2022-07-23T02:07:08;99666.84;;;25.05;62.08
4745;BME280;2386;42.138;24.746;2022-07-23T02:09:34;99676.31;;;25.04;61.11
4745;BME280;2386;42.138;24.746;2022-07-23T02:12:00;99668.63;;;25.09;61.40
4745;BME280;2386;42.138;24.746;2022-07-23T02:14:26;99675.34;;;25.17;61.80
4745;BME280;2386;42.138;24.746;2022-07-23T02:16:51;99679.09;;;25.04;61.31
4745;BME280;2386;42.138;24.746;2022-07-23T02:19:17;99676.63;;;25.11;60.49
4745;BME280;2386;42.138;24.746;2022-07-23T02:21:42;99674.19;;;25.09;61.97
4745;BME280;2386;42.138;24.746;2022-07-23T02:24:08;99661.59;;;25.03;61.65
4745;BME280;2386;42.138;24.746;2022-07-23T02:26:33;99669.28;;;25.15;62.46
4745;BME280;2386;42.138;24.746;2022-07-23T02:29:01;99665.84;;;25.01;63.36
4745;BME280;2386;42.138;24.746;2022-07-23T02:31:28;99670.06;;;24.89;64.22
4745;BME280;2386;42.138;24.746;2022-07-23T02:33:53;99675.13;;;24.87;63.04
4745;BME280;2386;42.138;24.746;2022-07-23T02:36:19;99678.44;;;24.98;62.49
4745;BME280;2386;42.138;24.746;2022-07-23T02:38:44;99667.91;;;24.78;64.57
4745;BME280;2386;42.138;24.746;2022-07-23T02:41:10;99672.97;;;24.84;64.29
4745;BME280;2386;42.138;24.746;2022-07-23T02:43:35;99659.91;;;24.76;64.24
4745;BME280;2386;42.138;24.746;2022-07-23T02:46:00;99678.38;;;24.89;64.36
4745;BME280;2386;42.138;24.746;2022-07-23T02:48:26;99671.53;;;24.87;63.34
4745;BME280;2386;42.138;24.746;2022-07-23T02:50:51;99682.28;;;24.88;63.61
4745;BME280;2386;42.138;24.746;2022-07-23T02:53:17;99677.34;;;24.68;64.09
4745;BME280;2386;42.138;24.746;2022-07-23T02:55:43;99682.06;;;24.59;64.30
4745;BME280;2386;42.138;24.746;2022-07-23T02:58:08;99668.53;;;24.66;65.31
4745;BME280;2386;42.138;24.746;2022-07-23T03:00:34;99675.06;;;24.62;64.93
4745;BME280;2386;42.138;24.746;2022-07-23T03:02:59;99683.41;;;24.70;64.67
4745;BME280;2386;42.138;24.746;2022-07-23T03:05:24;99682.41;;;24.66;65.66
4745;BME280;2386;42.138;24.746;2022-07-23T03:07:50;99689.25;;;24.60;64.96
4745;BME280;2386;42.138;24.746;2022-07-23T03:10:15;99676.03;;;24.66;63.99
4745;BME280;2386;42.138;24.746;2022-07-23T03:12:41;99680.28;;;24.63;63.48
4745;BME280;2386;42.138;24.746;2022-07-23T03:15:07;99688.81;;;24.75;63.96
4745;BME280;2386;42.138;24.746;2022-07-23T03:17:32;99688.78;;;24.67;64.30
4745;BME280;2386;42.138;24.746;2022-07-23T03:19:58;99684.03;;;24.67;65.63
4745;BME280;2386;42.138;24.746;2022-07-23T03:22:23;99680.78;;;24.65;64.27
4745;BME280;2386;42.138;24.746;2022-07-23T03:24:49;99690.59;;;24.71;64.10
4745;BME280;2386;42.138;24.746;2022-07-23T03:27:25;99693.84;;;24.65;64.99
4745;BME280;2386;42.138;24.746;2022-07-23T03:29:53;99696.94;;;24.72;65.24
4745;BME280;2386;42.138;24.746;2022-07-23T03:32:20;99685.34;;;24.70;63.63
4745;BME280;2386;42.138;24.746;2022-07-23T03:34:45;99694.31;;;24.67;64.39
4745;BME280;2386;42.138;24.746;2022-07-23T03:37:10;99688.59;;;24.63;64.20
4745;BME280;2386;42.138;24.746;2022-07-23T03:39:36;99691.72;;;24.70;63.61
4745;BME280;2386;42.138;24.746;2022-07-23T03:42:01;99703.47;;;24.67;64.79
4745;BME280;2386;42.138;24.746;2022-07-23T03:44:27;99694.47;;;24.62;63.82
4745;BME280;2386;42.138;24.746;2022-07-23T03:47:23;99695.28;;;24.62;64.02
4745;BME280;2386;42.138;24.746;2022-07-23T03:49:49;99692.31;;;24.41;65.13
4745;BME280;2386;42.138;24.746;2022-07-23T03:52:14;99706.84;;;24.55;63.19
4745;BME280;2386;42.138;24.746;2022-07-23T03:54:40;99701.97;;;24.61;64.65
4745;BME280;2386;42.138;24.746;2022-07-23T03:57:05;99689.88;;;24.57;64.16
4745;BME280;2386;42.138;24.746;2022-07-23T03:59:31;99692.19;;;24.64;62.13
4745;BME280;2386;42.138;24.746;2022-07-23T04:01:56;99690.03;;;24.52;62.02
4745;BME280;2386;42.138;24.746;2022-07-23T04:04:21;99694.41;;;24.36;61.94
4745;BME280;2386;42.138;24.746;2022-07-23T04:06:47;99695.75;;;24.16;62.73
4745;BME280;2386;42.138;24.746;2022-07-23T04:09:12;99697.75;;;24.24;63.93
4745;BME280;2386;42.138;24.746;2022-07-23T04:11:38;99698.72;;;24.19;63.49
4745;BME280;2386;42.138;24.746;2022-07-23T04:14:04;99700.91;;;24.31;63.17
4745;BME280;2386;42.138;24.746;2022-07-23T04:16:29;99703.31;;;24.24;64.26
4745;BME280;2386;42.138;24.746;2022-07-23T04:18:56;99703.13;;;24.20;63.96
4745;BME280;2386;42.138;24.746;2022-07-23T04:21:25;99700.94;;;24.09;64.26
4745;BME280;2386;42.138;24.746;2022-07-23T04:23:51;99701.63;;;24.14;64.07
4745;BME280;2386;42.138;24.746;2022-07-23T04:26:16;99694.84;;;23.98;64.55
4745;BME280;2386;42.138;24.746;2022-07-23T04:28:41;99705.66;;;24.08;64.11
4745;BME280;2386;42.138;24.746;2022-07-23T04:31:07;99713.34;;;24.11;63.63
4745;BME280;2386;42.138;24.746;2022-07-23T04:33:33;99708.84;;;23.93;64.71
4745;BME280;2386;42.138;24.746;2022-07-23T04:35:58;99715.19;;;23.93;65.67
4745;BME280;2386;42.138;24.746;2022-07-23T04:38:23;99703.84;;;24.04;65.09
4745;BME280;2386;42.138;24.746;2022-07-23T04:40:49;99702.13;;;24.16;66.14
4745;BME280;2386;42.138;24.746;2022-07-23T04:43:14;99711.81;;;24.28;65.42
4745;BME280;2386;42.138;24.746;2022-07-23T04:45:40;99708.09;;;24.32;65.89
4745;BME280;2386;42.138;24.746;2022-07-23T04:48:06;99711.41;;;24.43;65.17
4745;BME280;2386;42.138;24.746;2022-07-23T04:50:32;99707.03;;;24.50;64.39
4745;BME280;2386;42.138;24.746;2022-07-23T04:52:57;99703.44;;;24.50;63.80
4745;BME280;2386;42.138;24.746;2022-07-23T04:55:23;99711.16;;;24.70;62.49
4745;BME280;2386;42.138;24.746;2022-07-23T04:57:48;99707.31;;;24.40;63.02
4745;BME280;2386;42.138;24.746;2022-07-23T05:00:14;99716.81;;;24.48;62.72
4745;BME280;2386;42.138;24.746;2022-07-23T05:02:40;99715.81;;;24.44;63.14
4745;BME280;2386;42.138;24.746;2022-07-23T05:05:05;99712.31;;;24.30;63.46
4745;BME280;2386;42.138;24.746;2022-07-23T05:07:34;99704.22;;;24.42;63.96
4745;BME280;2386;42.138;24.746;2022-07-23T05:09:59;99708.00;;;24.54;63.63
4745;BME280;2386;42.138;24.746;2022-07-23T05:12:24;99706.38;;;24.62;63.32
4745;BME280;2386;42.138;24.746;2022-07-23T05:14:50;99705.28;;;24.72;62.95
4745;BME280;2386;42.138;24.746;2022-07-23T05:17:16;99715.28;;;24.90;61.20
4745;BME280;2386;42.138;24.746;2022-07-23T05:19:42;99711.34;;;24.91;60.92
4745;BME280;2386;42.138;24.746;2022-07-23T05:22:07;99698.75;;;24.76;62.12
4745;BME280;2386;42.138;24.746;2022-07-23T05:24:32;99709.91;;;24.94;61.37
4745;BME280;2386;42.138;24.746;2022-07-23T05:26:58;99700.75;;;24.93;61.46
4745;BME280;2386;42.138;24.746;2022-07-23T05:29:23;99697.47;;;24.91;61.84
4745;BME280;2386;42.138;24.746;2022-07-23T05:31:49;99700.78;;;25.02;61.61
4745;BME280;2386;42.138;24.746;2022-07-23T05:34:15;99706.22;;;25.24;62.40
4745;BME280;2386;42.138;24.746;2022-07-23T05:36:40;99703.09;;;25.34;61.38
4745;BME280;2386;42.138;24.746;2022-07-23T05:39:06;99695.41;;;25.48;60.71
4745;BME280;2386;42.138;24.746;2022-07-23T05:41:31;99699.16;;;25.52;60.95
4745;BME280;2386;42.138;24.746;2022-07-23T05:43:56;99707.03;;;25.68;59.54
4745;BME280;2386;42.138;24.746;2022-07-23T05:46:22;99702.44;;;25.72;59.19
4745;BME280;2386;42.138;24.746;2022-07-23T05:48:47;99704.38;;;25.80;59.08
4745;BME280;2386;42.138;24.746;2022-07-23T05:51:24;99704.69;;;25.87;59.36
4745;BME280;2386;42.138;24.746;2022-07-23T05:53:49;99714.00;;;25.91;58.70
4745;BME280;2386;42.138;24.746;2022-07-23T05:56:16;99706.66;;;25.86;58.83
4745;BME280;2386;42.138;24.746;2022-07-23T05:58:41;99706.09;;;26.02;58.55
4745;BME280;2386;42.138;24.746;2022-07-23T06:01:06;99715.06;;;26.16;58.18
4745;BME280;2386;42.138;24.746;2022-07-23T06:03:32;99707.06;;;26.14;58.24
4745;BME280;2386;42.138;24.746;2022-07-23T06:05:57;99704.25;;;26.32;58.44
4745;BME280;2386;42.138;24.746;2022-07-23T06:08:23;99699.66;;;26.36;57.51
4745;BME280;2386;42.138;24.746;2022-07-23T06:10:48;99706.34;;;26.35;58.08
4745;BME280;2386;42.138;24.746;2022-07-23T06:13:17;99709.59;;;26.45;57.20
4745;BME280;2386;42.138;24.746;2022-07-23T06:15:42;99702.84;;;26.55;57.20
4745;BME280;2386;42.138;24.746;2022-07-23T06:18:08;99706.56;;;26.59;56.25
4745;BME280;2386;42.138;24.746;2022-07-23T06:20:33;99701.59;;;26.73;56.05
4745;BME280;2386;42.138;24.746;2022-07-23T06:22:59;99698.25;;;26.80;55.44
4745;BME280;2386;42.138;24.746;2022-07-23T06:25:24;99702.31;;;26.82;55.14
4745;BME280;2386;42.138;24.746;2022-07-23T06:27:49;99702.63;;;26.90;55.02
4745;BME280;2386;42.138;24.746;2022-07-23T06:30:15;99704.34;;;27.03;55.11
4745;BME280;2386;42.138;24.746;2022-07-23T06:32:42;99707.69;;;27.17;54.45
4745;BME280;2386;42.138;24.746;2022-07-23T06:35:09;99704.97;;;27.29;54.13
4745;BME280;2386;42.138;24.746;2022-07-23T06:37:34;99705.38;;;27.40;52.23
4745;BME280;2386;42.138;24.746;2022-07-23T06:39:59;99709.69;;;27.49;52.82
4745;BME280;2386;42.138;24.746;2022-07-23T06:42:25;99704.69;;;27.64;51.93
4745;BME280;2386;42.138;24.746;2022-07-23T06:44:50;99694.75;;;27.75;50.98
4745;BME280;2386;42.138;24.746;2022-07-23T06:47:16;99699.56;;;27.99;51.72
4745;BME280;2386;42.138;24.746;2022-07-23T06:49:41;99691.25;;;28.11;49.80
4745;BME280;2386;42.138;24.746;2022-07-23T06:52:07;99692.78;;;28.33;49.72
4745;BME280;2386;42.138;24.746;2022-07-23T06:54:33;99690.69;;;28.42;48.66
4745;BME280;2386;42.138;24.746;2022-07-23T06:56:59;99686.16;;;28.62;48.21
4745;BME280;2386;42.138;24.746;2022-07-23T06:59:24;99680.69;;;28.77;47.57
4745;BME280;2386;42.138;24.746;2022-07-23T07:01:49;99677.91;;;28.90;47.58
4745;BME280;2386;42.138;24.746;2022-07-23T07:04:15;99676.50;;;28.96;46.02
4745;BME280;2386;42.138;24.746;2022-07-23T07:06:40;99675.03;;;29.14;46.95
4745;BME280;2386;42.138;24.746;2022-07-23T07:09:06;99686.66;;;29.28;45.47
4745;BME280;2386;42.138;24.746;2022-07-23T07:11:32;99677.00;;;29.26;45.00
4745;BME280;2386;42.138;24.746;2022-07-23T07:13:57;99678.47;;;29.35;44.84
4745;BME280;2386;42.138;24.746;2022-07-23T07:16:23;99674.59;;;29.52;46.20
4745;BME280;2386;42.138;24.746;2022-07-23T07:18:48;99664.94;;;29.50;44.86
4745;BME280;2386;42.138;24.746;2022-07-23T07:21:14;99678.16;;;29.65;43.58
4745;BME280;2386;42.138;24.746;2022-07-23T07:23:40;99669.31;;;29.79;45.87
4745;BME280;2386;42.138;24.746;2022-07-23T07:26:05;99673.84;;;29.83;43.53
4745;BME280;2386;42.138;24.746;2022-07-23T07:28:30;99663.00;;;29.82;42.94
4745;BME280;2386;42.138;24.746;2022-07-23T07:30:56;99673.56;;;29.88;41.27
4745;BME280;2386;42.138;24.746;2022-07-23T07:33:21;99654.72;;;29.85;40.43
4745;BME280;2386;42.138;24.746;2022-07-23T07:35:47;99664.22;;;29.96;40.44
4745;BME280;2386;42.138;24.746;2022-07-23T07:38:13;99661.19;;;30.01;40.50
4745;BME280;2386;42.138;24.746;2022-07-23T07:40:38;99656.66;;;30.13;40.05
4745;BME280;2386;42.138;24.746;2022-07-23T07:43:04;99656.13;;;30.23;41.15
4745;BME280;2386;42.138;24.746;2022-07-23T07:45:29;99653.06;;;30.28;40.82
4745;BME280;2386;42.138;24.746;2022-07-23T07:47:55;99647.63;;;30.35;41.50
4745;BME280;2386;42.138;24.746;2022-07-23T07:50:21;99651.78;;;30.41;40.78
4745;BME280;2386;42.138;24.746;2022-07-23T07:52:47;99644.28;;;30.45;40.61
4745;BME280;2386;42.138;24.746;2022-07-23T07:55:13;99653.03;;;30.59;41.15
4745;BME280;2386;42.138;24.746;2022-07-23T07:57:39;99654.00;;;30.67;40.91
4745;BME280;2386;42.138;24.746;2022-07-23T08:00:06;99651.47;;;30.78;39.84
4745;BME280;2386;42.138;24.746;2022-07-23T08:02:43;99646.75;;;30.82;38.87
4745;BME280;2386;42.138;24.746;2022-07-23T08:05:13;99643.00;;;30.93;38.19
4745;BME280;2386;42.138;24.746;2022-07-23T08:07:41;99636.59;;;30.93;38.80
4745;BME280;2386;42.138;24.746;2022-07-23T08:10:08;99646.22;;;31.11;37.91
4745;BME280;2386;42.138;24.746;2022-07-23T08:12:46;99647.31;;;31.26;37.51
4745;BME280;2386;42.138;24.746;2022-07-23T08:15:14;99647.53;;;31.36;38.46
4745;BME280;2386;42.138;24.746;2022-07-23T08:17:41;99640.03;;;31.41;37.94
4745;BME280;2386;42.138;24.746;2022-07-23T08:20:08;99643.25;;;31.43;38.72
4745;BME280;2386;42.138;24.746;2022-07-23T08:22:50;99633.38;;;31.49;37.63
4745;BME280;2386;42.138;24.746;2022-07-23T08:25:26;99627.03;;;31.52;36.93
4745;BME280;2386;42.138;24.746;2022-07-23T08:27:52;99623.19;;;31.60;37.92
4745;BME280;2386;42.138;24.746;2022-07-23T08:30:18;99621.56;;;31.59;35.79
4745;BME280;2386;42.138;24.746;2022-07-23T08:35:21;99620.22;;;31.72;36.87
4745;BME280;2386;42.138;24.746;2022-07-23T08:37:47;99605.59;;;31.82;37.19
4745;BME280;2386;42.138;24.746;2022-07-23T08:40:12;99607.22;;;31.83;37.67
4745;BME280;2386;42.138;24.746;2022-07-23T08:42:38;99607.34;;;31.90;38.35
4745;BME280;2386;42.138;24.746;2022-07-23T08:45:07;99605.28;;;31.87;36.06
4745;BME280;2386;42.138;24.746;2022-07-23T08:47:32;99608.75;;;32.03;36.55
4745;BME280;2386;42.138;24.746;2022-07-23T08:49:58;99605.56;;;32.05;35.12
4745;BME280;2386;42.138;24.746;2022-07-23T08:52:24;99590.41;;;32.10;35.41
4745;BME280;2386;42.138;24.746;2022-07-23T08:54:50;99589.09;;;32.26;35.19
4745;BME280;2386;42.138;24.746;2022-07-23T08:57:16;99589.28;;;32.37;34.83
4745;BME280;2386;42.138;24.746;2022-07-23T08:59:42;99593.81;;;32.45;35.97
4745;BME280;2386;42.138;24.746;2022-07-23T09:02:07;99589.00;;;32.46;33.85
4745;BME280;2386;42.138;24.746;2022-07-23T09:04:32;99593.91;;;32.52;34.22
4745;BME280;2386;42.138;24.746;2022-07-23T09:06:58;99591.16;;;32.56;33.64
4745;BME280;2386;42.138;24.746;2022-07-23T09:09:24;99582.44;;;32.64;33.56
4745;BME280;2386;42.138;24.746;2022-07-23T09:12:09;99588.16;;;32.72;33.62
4745;BME280;2386;42.138;24.746;2022-07-23T09:14:43;99586.75;;;32.85;32.43
4745;BME280;2386;42.138;24.746;2022-07-23T09:17:27;99583.28;;;32.95;32.26
4745;BME280;2386;42.138;24.746;2022-07-23T09:20:11;99587.97;;;33.17;33.56
4745;BME280;2386;42.138;24.746;2022-07-23T09:22:37;99579.97;;;33.19;32.50
4745;BME280;2386;42.138;24.746;2022-07-23T09:25:17;99582.94;;;33.30;32.69
4745;BME280;2386;42.138;24.746;2022-07-23T09:27:52;99587.50;;;33.42;32.92
4745;BME280;2386;42.138;24.746;2022-07-23T09:30:27;99577.91;;;33.50;30.36
4745;BME280;2386;42.138;24.746;2022-07-23T09:33:15;99570.00;;;33.62;30.31
4745;BME280;2386;42.138;24.746;2022-07-23T09:35:54;99577.06;;;33.83;29.63
4745;BME280;2386;42.138;24.746;2022-07-23T09:38:23;99573.59;;;34.00;29.00
4745;BME280;2386;42.138;24.746;2022-07-23T09:41:09;99566.44;;;34.10;30.89
4745;BME280;2386;42.138;24.746;2022-07-23T09:43:35;99562.47;;;34.21;28.63
4745;BME280;2386;42.138;24.746;2022-07-23T09:46:24;99564.06;;;34.19;30.07
4745;BME280;2386;42.138;24.746;2022-07-23T09:48:50;99560.03;;;34.20;29.76
4745;BME280;2386;42.138;24.746;2022-07-23T09:51:17;99557.25;;;34.23;29.72
4745;BME280;2386;42.138;24.746;2022-07-23T09:53:57;99562.06;;;34.23;29.02
4745;BME280;2386;42.138;24.746;2022-07-23T09:56:23;99552.06;;;34.29;26.98
4745;BME280;2386;42.138;24.746;2022-07-23T09:58:52;99549.34;;;34.40;26.91
4745;BME280;2386;42.138;24.746;2022-07-23T10:01:28;99555.47;;;34.52;27.97
4745;BME280;2386;42.138;24.746;2022-07-23T10:03:54;99556.28;;;34.56;27.67
4745;BME280;2386;42.138;24.746;2022-07-23T10:06:20;99553.09;;;34.62;28.32
4745;BME280;2386;42.138;24.746;2022-07-23T10:08:47;99547.50;;;34.69;27.66
4745;BME280;2386;42.138;24.746;2022-07-23T10:11:13;99546.31;;;34.70;25.98
4745;BME280;2386;42.138;24.746;2022-07-23T10:13:40;99546.38;;;34.80;26.24
4745;BME280;2386;42.138;24.746;2022-07-23T10:16:22;99543.59;;;34.84;26.51
4745;BME280;2386;42.138;24.746;2022-07-23T10:18:48;99541.19;;;34.93;26.23
4745;BME280;2386;42.138;24.746;2022-07-23T10:21:20;99545.66;;;35.01;25.54
4745;BME280;2386;42.138;24.746;2022-07-23T10:24:12;99541.25;;;35.11;25.40
4745;BME280;2386;42.138;24.746;2022-07-23T10:27:07;99543.75;;;35.30;26.36
4745;BME280;2386;42.138;24.746;2022-07-23T10:29:58;99538.53;;;35.36;26.93
4745;BME280;2386;42.138;24.746;2022-07-23T10:37:47;99527.69;;;35.59;25.65
4745;BME280;2386;42.138;24.746;2022-07-23T10:40:15;99525.66;;;35.56;25.49
4745;BME280;2386;42.138;24.746;2022-07-23T10:42:43;99524.88;;;35.59;25.23
4745;BME280;2386;42.138;24.746;2022-07-23T10:47:50;99512.34;;;35.74;25.67
4745;BME280;2386;42.138;24.746;2022-07-23T10:50:27;99515.56;;;35.76;24.72
4745;BME280;2386;42.138;24.746;2022-07-23T10:53:52;99513.59;;;35.87;25.53
4745;BME280;2386;42.138;24.746;2022-07-23T10:59:03;99506.72;;;35.92;25.16
4745;BME280;2386;42.138;24.746;2022-07-23T11:01:34;99496.22;;;35.96;25.26
4745;BME280;2386;42.138;24.746;2022-07-23T11:04:00;99493.00;;;35.98;24.06
4745;BME280;2386;42.138;24.746;2022-07-23T11:17:25;99478.44;;;36.31;24.53
4745;BME280;2386;42.138;24.746;2022-07-23T11:27:49;99471.88;;;36.59;22.21
4745;BME280;2386;42.138;24.746;2022-07-23T11:32:53;99470.22;;;36.76;23.67
4745;BME280;2386;42.138;24.746;2022-07-23T11:35:25;99464.53;;;36.83;23.80
4745;BME280;2386;42.138;24.746;2022-07-23T11:37:52;99461.25;;;36.92;24.36
4745;BME280;2386;42.138;24.746;2022-07-23T11:40:19;99461.19;;;37.02;23.80
4745;BME280;2386;42.138;24.746;2022-07-23T11:43:11;99460.72;;;37.11;23.88
4745;BME280;2386;42.138;24.746;2022-07-23T11:45:39;99457.03;;;37.17;24.34
4745;BME280;2386;42.138;24.746;2022-07-23T11:48:07;99460.63;;;37.25;22.96
4745;BME280;2386;42.138;24.746;2022-07-23T11:50:33;99454.06;;;37.39;22.18
4745;BME280;2386;42.138;24.746;2022-07-23T11:52:59;99455.63;;;37.47;22.12
4745;BME280;2386;42.138;24.746;2022-07-23T11:55:25;99459.84;;;37.76;24.54
4745;BME280;2386;42.138;24.746;2022-07-23T11:57:52;99461.72;;;37.90;21.74
4745;BME280;2386;42.138;24.746;2022-07-23T12:00:24;99451.44;;;38.07;22.81
4745;BME280;2386;42.138;24.746;2022-07-23T12:02:52;99446.81;;;38.61;24.31
4745;BME280;2386;42.138;24.746;2022-07-23T12:05:20;99451.16;;;40.00;19.53
4745;BME280;2386;42.138;24.746;2022-07-23T12:07:51;99456.28;;;42.35;18.08
4745;BME280;2386;42.138;24.746;2022-07-23T12:10:25;99453.78;;;44.71;17.92
4745;BME280;2386;42.138;24.746;2022-07-23T12:12:53;99459.53;;;46.73;15.89
4745;BME280;2386;42.138;24.746;2022-07-23T12:15:26;99460.41;;;47.97;13.08
4745;BME280;2386;42.138;24.746;2022-07-23T12:17:52;99460.25;;;48.83;13.00
4745;BME280;2386;42.138;24.746;2022-07-23T12:20:28;99450.78;;;50.23;13.50
4745;BME280;2386;42.138;24.746;2022-07-23T12:23:00;99455.13;;;51.16;11.89
4745;BME280;2386;42.138;24.746;2022-07-23T12:25:28;99455.03;;;51.79;12.66
4745;BME280;2386;42.138;24.746;2022-07-23T12:28:05;99441.97;;;52.06;11.62
4745;BME280;2386;42.138;24.746;2022-07-23T12:30:42;99433.16;;;52.43;10.81
4745;BME280;2386;42.138;24.746;2022-07-23T12:33:09;99432.66;;;52.78;11.85
4745;BME280;2386;42.138;24.746;2022-07-23T12:35:44;99434.50;;;53.15;10.08
4745;BME280;2386;42.138;24.746;2022-07-23T12:38:12;99443.97;;;53.43;10.03
4745;BME280;2386;42.138;24.746;2022-07-23T12:43:10;99430.81;;;54.06;9.93
4745;BME280;2386;42.138;24.746;2022-07-23T12:45:49;99427.03;;;54.22;9.74
4745;BME280;2386;42.138;24.746;2022-07-23T12:51:14;99421.28;;;54.88;10.06
4745;BME280;2386;42.138;24.746;2022-07-23T12:53:49;99420.78;;;54.89;9.76
4745;BME280;2386;42.138;24.746;2022-07-23T12:56:20;99413.56;;;54.96;11.12
4745;BME280;2386;42.138;24.746;2022-07-23T12:58:51;99413.31;;;55.18;10.74
4745;BME280;2386;42.138;24.746;2022-07-23T13:04:18;99402.47;;;55.19;10.63
4745;BME280;2386;42.138;24.746;2022-07-23T13:06:49;99403.78;;;55.18;10.71
4745;BME280;2386;42.138;24.746;2022-07-23T13:09:38;99396.06;;;55.26;10.66
4745;BME280;2386;42.138;24.746;2022-07-23T13:12:02;99397.78;;;55.10;9.77
4745;BME280;2386;42.138;24.746;2022-07-23T13:14:28;99402.72;;;55.45;9.53
4745;BME280;2386;42.138;24.746;2022-07-23T13:16:54;99389.66;;;55.03;9.21
4745;BME280;2386;42.138;24.746;2022-07-23T13:19:20;99387.31;;;55.01;9.10
4745;BME280;2386;42.138;24.746;2022-07-23T13:21:48;99399.31;;;55.17;8.59
4745;BME280;2386;42.138;24.746;2022-07-23T13:24:14;99387.19;;;54.53;9.91
4745;BME280;2386;42.138;24.746;2022-07-23T13:26:40;99384.47;;;54.96;9.84
4745;BME280;2386;42.138;24.746;2022-07-23T13:29:06;99378.81;;;55.03;10.21
4745;BME280;2386;42.138;24.746;2022-07-23T13:31:32;99391.34;;;55.23;10.08
4745;BME280;2386;42.138;24.746;2022-07-23T13:33:58;99383.44;;;55.18;10.55
4745;BME280;2386;42.138;24.746;2022-07-23T13:36:23;99383.94;;;55.22;10.30
4745;BME280;2386;42.138;24.746;2022-07-23T13:38:49;99380.00;;;55.19;10.12
4745;BME280;2386;42.138;24.746;2022-07-23T13:41:19;99380.78;;;55.20;10.01
4745;BME280;2386;42.138;24.746;2022-07-23T13:43:44;99380.41;;;55.72;9.24
4745;BME280;2386;42.138;24.746;2022-07-23T13:46:10;99374.56;;;56.15;8.54
4745;BME280;2386;42.138;24.746;2022-07-23T13:48:35;99376.06;;;56.22;9.09
4745;BME280;2386;42.138;24.746;2022-07-23T13:51:01;99383.53;;;56.17;9.22
4745;BME280;2386;42.138;24.746;2022-07-23T13:53:27;99373.06;;;56.27;9.96
4745;BME280;2386;42.138;24.746;2022-07-23T13:55:53;99371.00;;;56.22;10.27
4745;BME280;2386;42.138;24.746;2022-07-23T13:58:19;99369.00;;;55.74;10.21